Hauptseite
METAR-TAF:

METAR-TAF

Flughäfen :

Vlissingen, Niederlande

Breite: 51-27N, Länge: 3-36E, Höhe: 10 m

Beobachtung

Neuester Wetterbericht von vor 34 Minuten, um 19:25 UTC
Wind 5 kt aus West/Nordwest
Temperatur 14°C
Luftfeuchtigkeit 77%
Luftdruck 1026 hPa
Sichtweite: 9000 m

METAR: EHFS 211925Z AUTO 29005KT 9000 NSC 14/10 Q1026 W///H///

Zeit: 21:59 (19:59 UTC)


TAF: fehlend

Wetterbeobachtungen und Prognosen von mehr als 4000 Flughäfen (METAR und TAF Bericht).

Die verfügbaren Stationen werden durch gelbe und rote Markierungen auf der Karte dargestellt.

Führen Sie die Maus auf sie, um den Namen der Station zu sehen.

Darauf klicken, um die Beobachtung von Wetterbeobachtungen und Prognosen zu sehen.

Um die Karte zu ändern : klicken Sie auf den grünen Tasten mit einem schwarzen Kreuz Zum Vergrößern, auf den grünen Button mit einem Gedankenstrich zu verkleinern, oder auf die grünen Pfeile für benachbarte Karten.


METAR-TAF: